sensor_id;sensor_type;location;lat;lon;timestamp;temperature;humidity
5278;DHT22;2662;51.194;6.614;2023-04-10T00:00:21;8.50;99.90
5278;DHT22;2662;51.194;6.614;2023-04-10T00:02:47;8.50;99.90
5278;DHT22;2662;51.194;6.614;2023-04-10T00:05:14;8.50;99.90
5278;DHT22;2662;51.194;6.614;2023-04-10T00:07:41;8.50;99.90
5278;DHT22;2662;51.194;6.614;2023-04-10T00:10:08;8.50;99.90
5278;DHT22;2662;51.194;6.614;2023-04-10T00:12:35;8.50;99.90
5278;DHT22;2662;51.194;6.614;2023-04-10T00:15:04;8.50;99.90
5278;DHT22;2662;51.194;6.614;2023-04-10T00:17:31;8.60;99.90
5278;DHT22;2662;51.194;6.614;2023-04-10T00:19:57;8.60;99.90
5278;DHT22;2662;51.194;6.614;2023-04-10T00:22:25;8.60;99.90
5278;DHT22;2662;51.194;6.614;2023-04-10T00:24:51;8.60;99.90
5278;DHT22;2662;51.194;6.614;2023-04-10T00:27:18;8.60;99.90
5278;DHT22;2662;51.194;6.614;2023-04-10T00:29:45;8.60;99.90
5278;DHT22;2662;51.194;6.614;2023-04-10T00:32:13;8.60;99.90
5278;DHT22;2662;51.194;6.614;2023-04-10T00:34:40;8.60;99.90
5278;DHT22;2662;51.194;6.614;2023-04-10T00:37:06;8.60;99.90
5278;DHT22;2662;51.194;6.614;2023-04-10T00:39:33;8.60;99.90
5278;DHT22;2662;51.194;6.614;2023-04-10T00:42:00;8.70;99.90
5278;DHT22;2662;51.194;6.614;2023-04-10T00:44:27;8.70;99.90
5278;DHT22;2662;51.194;6.614;2023-04-10T00:46:53;8.70;99.90
5278;DHT22;2662;51.194;6.614;2023-04-10T00:49:22;8.70;99.90
5278;DHT22;2662;51.194;6.614;2023-04-10T00:51:48;8.80;99.90
5278;DHT22;2662;51.194;6.614;2023-04-10T00:54:15;8.80;99.90
5278;DHT22;2662;51.194;6.614;2023-04-10T00:56:42;8.80;99.90
5278;DHT22;2662;51.194;6.614;2023-04-10T00:59:10;8.80;99.90
5278;DHT22;2662;51.194;6.614;2023-04-10T01:01:37;8.80;99.90
5278;DHT22;2662;51.194;6.614;2023-04-10T01:04:04;8.80;99.90
5278;DHT22;2662;51.194;6.614;2023-04-10T01:06:40;8.90;99.90
5278;DHT22;2662;51.194;6.614;2023-04-10T01:09:16;8.90;99.90
5278;DHT22;2662;51.194;6.614;2023-04-10T01:11:49;8.90;99.90
5278;DHT22;2662;51.194;6.614;2023-04-10T01:14:23;8.80;99.90
5278;DHT22;2662;51.194;6.614;2023-04-10T01:16:57;8.90;99.90
5278;DHT22;2662;51.194;6.614;2023-04-10T01:19:39;8.80;99.90
5278;DHT22;2662;51.194;6.614;2023-04-10T01:22:09;8.80;99.90
5278;DHT22;2662;51.194;6.614;2023-04-10T01:24:58;8.80;99.90
5278;DHT22;2662;51.194;6.614;2023-04-10T01:27:37;8.80;99.90
5278;DHT22;2662;51.194;6.614;2023-04-10T01:30:11;8.80;99.90
5278;DHT22;2662;51.194;6.614;2023-04-10T01:32:40;8.80;99.90
5278;DHT22;2662;51.194;6.614;2023-04-10T01:35:08;8.80;99.90
5278;DHT22;2662;51.194;6.614;2023-04-10T01:37:39;8.80;99.90
5278;DHT22;2662;51.194;6.614;2023-04-10T01:40:10;8.80;99.90
5278;DHT22;2662;51.194;6.614;2023-04-10T01:42:40;8.80;99.90
5278;DHT22;2662;51.194;6.614;2023-04-10T01:45:14;8.90;99.90
5278;DHT22;2662;51.194;6.614;2023-04-10T01:47:42;8.80;99.90
5278;DHT22;2662;51.194;6.614;2023-04-10T01:50:10;8.80;99.90
5278;DHT22;2662;51.194;6.614;2023-04-10T01:52:38;8.80;99.90
5278;DHT22;2662;51.194;6.614;2023-04-10T01:55:07;8.80;99.90
5278;DHT22;2662;51.194;6.614;2023-04-10T01:57:34;8.80;99.90
5278;DHT22;2662;51.194;6.614;2023-04-10T02:00:01;8.70;99.90
5278;DHT22;2662;51.194;6.614;2023-04-10T02:02:31;8.70;99.90
5278;DHT22;2662;51.194;6.614;2023-04-10T02:04:57;8.70;99.90
5278;DHT22;2662;51.194;6.614;2023-04-10T02:07:28;8.70;99.90
5278;DHT22;2662;51.194;6.614;2023-04-10T02:09:58;8.70;99.90
5278;DHT22;2662;51.194;6.614;2023-04-10T02:12:30;8.60;99.90
5278;DHT22;2662;51.194;6.614;2023-04-10T02:14:59;8.60;99.90
5278;DHT22;2662;51.194;6.614;2023-04-10T02:17:28;8.50;99.90
5278;DHT22;2662;51.194;6.614;2023-04-10T02:19:59;8.50;99.90
5278;DHT22;2662;51.194;6.614;2023-04-10T02:22:26;8.50;99.90
5278;DHT22;2662;51.194;6.614;2023-04-10T02:24:53;8.40;99.90
5278;DHT22;2662;51.194;6.614;2023-04-10T02:27:28;8.40;99.90
5278;DHT22;2662;51.194;6.614;2023-04-10T02:29:55;8.40;99.90
5278;DHT22;2662;51.194;6.614;2023-04-10T02:32:22;8.30;99.90
5278;DHT22;2662;51.194;6.614;2023-04-10T02:34:49;8.30;99.90
5278;DHT22;2662;51.194;6.614;2023-04-10T02:37:17;8.20;99.90
5278;DHT22;2662;51.194;6.614;2023-04-10T02:39:44;8.20;99.90
5278;DHT22;2662;51.194;6.614;2023-04-10T02:42:10;8.20;99.90
5278;DHT22;2662;51.194;6.614;2023-04-10T02:44:37;8.10;99.90
5278;DHT22;2662;51.194;6.614;2023-04-10T02:47:04;8.10;99.90
5278;DHT22;2662;51.194;6.614;2023-04-10T02:49:32;8.00;99.90
5278;DHT22;2662;51.194;6.614;2023-04-10T02:51:59;8.00;99.90
5278;DHT22;2662;51.194;6.614;2023-04-10T02:54:27;8.00;99.90
5278;DHT22;2662;51.194;6.614;2023-04-10T02:56:55;8.00;99.90
5278;DHT22;2662;51.194;6.614;2023-04-10T02:59:22;8.00;99.90
5278;DHT22;2662;51.194;6.614;2023-04-10T03:01:49;7.90;99.90
5278;DHT22;2662;51.194;6.614;2023-04-10T03:04:16;7.80;99.90
5278;DHT22;2662;51.194;6.614;2023-04-10T03:06:43;7.80;99.90
5278;DHT22;2662;51.194;6.614;2023-04-10T03:09:10;7.80;99.90
5278;DHT22;2662;51.194;6.614;2023-04-10T03:11:38;7.80;99.90
5278;DHT22;2662;51.194;6.614;2023-04-10T03:14:04;7.70;99.90
5278;DHT22;2662;51.194;6.614;2023-04-10T03:16:31;7.70;99.90
5278;DHT22;2662;51.194;6.614;2023-04-10T03:18:58;7.70;99.90
5278;DHT22;2662;51.194;6.614;2023-04-10T03:21:25;7.70;99.90
5278;DHT22;2662;51.194;6.614;2023-04-10T03:23:51;7.60;99.90
5278;DHT22;2662;51.194;6.614;2023-04-10T03:26:18;7.60;99.90
5278;DHT22;2662;51.194;6.614;2023-04-10T03:28:46;7.60;99.90
5278;DHT22;2662;51.194;6.614;2023-04-10T03:31:13;7.50;99.90
5278;DHT22;2662;51.194;6.614;2023-04-10T03:33:40;7.50;99.90
5278;DHT22;2662;51.194;6.614;2023-04-10T03:36:07;7.50;99.90
5278;DHT22;2662;51.194;6.614;2023-04-10T03:38:34;7.50;99.90
5278;DHT22;2662;51.194;6.614;2023-04-10T03:41:01;7.40;99.90
5278;DHT22;2662;51.194;6.614;2023-04-10T03:43:28;7.40;99.90
5278;DHT22;2662;51.194;6.614;2023-04-10T03:45:56;7.40;99.90
5278;DHT22;2662;51.194;6.614;2023-04-10T03:48:23;7.40;99.90
5278;DHT22;2662;51.194;6.614;2023-04-10T03:50:52;7.30;99.90
5278;DHT22;2662;51.194;6.614;2023-04-10T03:53:19;7.30;99.90
5278;DHT22;2662;51.194;6.614;2023-04-10T03:55:45;7.20;99.90
5278;DHT22;2662;51.194;6.614;2023-04-10T03:58:12;7.20;99.90
5278;DHT22;2662;51.194;6.614;2023-04-10T04:00:39;7.20;99.90
5278;DHT22;2662;51.194;6.614;2023-04-10T04:03:07;7.20;99.90
5278;DHT22;2662;51.194;6.614;2023-04-10T04:05:34;7.10;99.90
5278;DHT22;2662;51.194;6.614;2023-04-10T04:08:00;7.10;99.90
5278;DHT22;2662;51.194;6.614;2023-04-10T04:10:29;7.10;99.90
5278;DHT22;2662;51.194;6.614;2023-04-10T04:12:55;7.00;99.90
5278;DHT22;2662;51.194;6.614;2023-04-10T04:15:22;7.00;99.90
5278;DHT22;2662;51.194;6.614;2023-04-10T04:17:49;7.00;99.90
5278;DHT22;2662;51.194;6.614;2023-04-10T04:20:17;6.90;99.90
5278;DHT22;2662;51.194;6.614;2023-04-10T04:22:44;6.90;99.90
5278;DHT22;2662;51.194;6.614;2023-04-10T04:25:11;6.80;99.90
5278;DHT22;2662;51.194;6.614;2023-04-10T04:27:37;6.80;99.90
5278;DHT22;2662;51.194;6.614;2023-04-10T04:30:05;6.80;99.90
5278;DHT22;2662;51.194;6.614;2023-04-10T04:32:32;6.80;99.90
5278;DHT22;2662;51.194;6.614;2023-04-10T04:34:59;6.70;99.90
5278;DHT22;2662;51.194;6.614;2023-04-10T04:37:27;6.70;99.90
5278;DHT22;2662;51.194;6.614;2023-04-10T04:39:53;6.70;99.90
5278;DHT22;2662;51.194;6.614;2023-04-10T04:42:20;6.70;99.90
5278;DHT22;2662;51.194;6.614;2023-04-10T04:44:48;6.70;99.90
5278;DHT22;2662;51.194;6.614;2023-04-10T04:47:15;6.70;99.90
5278;DHT22;2662;51.194;6.614;2023-04-10T04:49:42;6.70;99.90
5278;DHT22;2662;51.194;6.614;2023-04-10T04:52:08;6.70;99.90
5278;DHT22;2662;51.194;6.614;2023-04-10T04:54:36;6.70;99.90
5278;DHT22;2662;51.194;6.614;2023-04-10T04:57:03;6.70;99.90
5278;DHT22;2662;51.194;6.614;2023-04-10T04:59:30;6.80;99.90
5278;DHT22;2662;51.194;6.614;2023-04-10T05:01:56;6.80;99.90
5278;DHT22;2662;51.194;6.614;2023-04-10T05:04:23;6.80;99.90
5278;DHT22;2662;51.194;6.614;2023-04-10T05:06:50;6.90;99.90
5278;DHT22;2662;51.194;6.614;2023-04-10T05:09:16;6.90;99.90
5278;DHT22;2662;51.194;6.614;2023-04-10T05:11:44;7.00;99.90
5278;DHT22;2662;51.194;6.614;2023-04-10T05:14:11;7.10;99.90
5278;DHT22;2662;51.194;6.614;2023-04-10T05:16:38;7.20;99.90
5278;DHT22;2662;51.194;6.614;2023-04-10T05:19:05;7.20;99.90
5278;DHT22;2662;51.194;6.614;2023-04-10T05:21:31;7.40;99.90
5278;DHT22;2662;51.194;6.614;2023-04-10T05:23:58;7.40;99.90
5278;DHT22;2662;51.194;6.614;2023-04-10T05:26:25;7.60;99.90
5278;DHT22;2662;51.194;6.614;2023-04-10T05:28:53;7.60;99.90
5278;DHT22;2662;51.194;6.614;2023-04-10T05:31:19;7.70;99.90
5278;DHT22;2662;51.194;6.614;2023-04-10T05:33:46;7.90;99.90
5278;DHT22;2662;51.194;6.614;2023-04-10T05:36:13;8.00;99.90
5278;DHT22;2662;51.194;6.614;2023-04-10T05:38:40;8.10;99.90
5278;DHT22;2662;51.194;6.614;2023-04-10T05:41:07;8.20;99.90
5278;DHT22;2662;51.194;6.614;2023-04-10T05:43:33;8.30;99.90
5278;DHT22;2662;51.194;6.614;2023-04-10T05:46:02;8.40;99.90
5278;DHT22;2662;51.194;6.614;2023-04-10T05:48:29;8.50;99.90
5278;DHT22;2662;51.194;6.614;2023-04-10T05:50:55;8.60;99.90
5278;DHT22;2662;51.194;6.614;2023-04-10T05:53:27;8.70;99.90
5278;DHT22;2662;51.194;6.614;2023-04-10T05:55:55;8.70;99.90
5278;DHT22;2662;51.194;6.614;2023-04-10T05:58:23;8.80;99.90
5278;DHT22;2662;51.194;6.614;2023-04-10T06:00:50;8.90;99.90
5278;DHT22;2662;51.194;6.614;2023-04-10T06:03:18;9.10;99.90
5278;DHT22;2662;51.194;6.614;2023-04-10T06:05:45;9.20;99.90
5278;DHT22;2662;51.194;6.614;2023-04-10T06:08:12;9.30;99.90
5278;DHT22;2662;51.194;6.614;2023-04-10T06:10:39;9.50;99.90
5278;DHT22;2662;51.194;6.614;2023-04-10T06:13:05;9.80;99.90
5278;DHT22;2662;51.194;6.614;2023-04-10T06:15:32;10.60;99.90
5278;DHT22;2662;51.194;6.614;2023-04-10T06:17:59;11.30;99.90
5278;DHT22;2662;51.194;6.614;2023-04-10T06:20:27;12.00;99.90
5278;DHT22;2662;51.194;6.614;2023-04-10T06:22:53;12.60;99.90
5278;DHT22;2662;51.194;6.614;2023-04-10T06:25:20;13.60;99.90
5278;DHT22;2662;51.194;6.614;2023-04-10T06:27:47;14.50;99.90
5278;DHT22;2662;51.194;6.614;2023-04-10T06:30:14;15.00;99.90
5278;DHT22;2662;51.194;6.614;2023-04-10T06:32:40;15.10;99.90
5278;DHT22;2662;51.194;6.614;2023-04-10T06:35:08;15.80;99.90
5278;DHT22;2662;51.194;6.614;2023-04-10T06:37:36;16.70;99.90
5278;DHT22;2662;51.194;6.614;2023-04-10T06:40:04;17.10;99.90
5278;DHT22;2662;51.194;6.614;2023-04-10T06:42:31;17.30;99.90
5278;DHT22;2662;51.194;6.614;2023-04-10T06:44:58;17.80;99.90
5278;DHT22;2662;51.194;6.614;2023-04-10T06:47:24;18.10;99.30
5278;DHT22;2662;51.194;6.614;2023-04-10T06:49:51;18.40;98.40
5278;DHT22;2662;51.194;6.614;2023-04-10T06:52:18;18.50;97.00
5278;DHT22;2662;51.194;6.614;2023-04-10T06:54:46;18.30;97.40
5278;DHT22;2662;51.194;6.614;2023-04-10T06:57:13;18.20;97.80
5278;DHT22;2662;51.194;6.614;2023-04-10T06:59:40;18.20;97.20
5278;DHT22;2662;51.194;6.614;2023-04-10T07:02:07;18.00;96.90
5278;DHT22;2662;51.194;6.614;2023-04-10T07:04:34;17.70;97.60
5278;DHT22;2662;51.194;6.614;2023-04-10T07:07:01;17.50;97.90
5278;DHT22;2662;51.194;6.614;2023-04-10T07:09:28;17.40;97.50
5278;DHT22;2662;51.194;6.614;2023-04-10T07:11:56;16.80;98.20
5278;DHT22;2662;51.194;6.614;2023-04-10T07:14:23;16.40;99.80
5278;DHT22;2662;51.194;6.614;2023-04-10T07:16:50;16.20;99.90
5278;DHT22;2662;51.194;6.614;2023-04-10T07:19:18;16.30;99.90
5278;DHT22;2662;51.194;6.614;2023-04-10T07:21:45;16.20;99.90
5278;DHT22;2662;51.194;6.614;2023-04-10T07:24:14;15.70;99.90
5278;DHT22;2662;51.194;6.614;2023-04-10T07:26:41;15.40;99.90
5278;DHT22;2662;51.194;6.614;2023-04-10T07:29:09;14.90;99.90
5278;DHT22;2662;51.194;6.614;2023-04-10T07:31:35;14.90;99.90
5278;DHT22;2662;51.194;6.614;2023-04-10T07:34:02;15.00;99.90
5278;DHT22;2662;51.194;6.614;2023-04-10T07:36:29;15.20;99.90
5278;DHT22;2662;51.194;6.614;2023-04-10T07:38:57;15.40;99.90
5278;DHT22;2662;51.194;6.614;2023-04-10T07:41:24;15.40;99.90
5278;DHT22;2662;51.194;6.614;2023-04-10T07:43:50;15.40;99.90
5278;DHT22;2662;51.194;6.614;2023-04-10T07:46:19;15.40;99.90
5278;DHT22;2662;51.194;6.614;2023-04-10T07:48:45;15.70;99.90
5278;DHT22;2662;51.194;6.614;2023-04-10T07:51:12;16.10;99.90
5278;DHT22;2662;51.194;6.614;2023-04-10T07:53:39;16.60;99.90
5278;DHT22;2662;51.194;6.614;2023-04-10T07:56:07;16.80;99.90
5278;DHT22;2662;51.194;6.614;2023-04-10T07:58:40;17.20;99.90
5278;DHT22;2662;51.194;6.614;2023-04-10T08:01:06;17.60;99.20
5278;DHT22;2662;51.194;6.614;2023-04-10T08:03:38;17.50;99.10
5278;DHT22;2662;51.194;6.614;2023-04-10T08:06:06;17.40;99.00
5278;DHT22;2662;51.194;6.614;2023-04-10T08:08:34;17.70;99.80
5278;DHT22;2662;51.194;6.614;2023-04-10T08:11:01;17.80;99.90
5278;DHT22;2662;51.194;6.614;2023-04-10T08:13:27;18.10;98.70
5278;DHT22;2662;51.194;6.614;2023-04-10T08:15:54;17.80;97.30
5278;DHT22;2662;51.194;6.614;2023-04-10T08:18:21;17.30;97.90
5278;DHT22;2662;51.194;6.614;2023-04-10T08:20:49;17.30;97.90
5278;DHT22;2662;51.194;6.614;2023-04-10T08:23:15;17.40;99.40
5278;DHT22;2662;51.194;6.614;2023-04-10T08:25:42;17.70;99.50
5278;DHT22;2662;51.194;6.614;2023-04-10T08:28:09;17.60;97.90
5278;DHT22;2662;51.194;6.614;2023-04-10T08:30:35;17.50;99.00
5278;DHT22;2662;51.194;6.614;2023-04-10T08:33:02;17.40;98.10
5278;DHT22;2662;51.194;6.614;2023-04-10T08:35:29;17.40;99.70
5278;DHT22;2662;51.194;6.614;2023-04-10T08:37:57;17.20;98.70
5278;DHT22;2662;51.194;6.614;2023-04-10T08:40:23;17.30;98.80
5278;DHT22;2662;51.194;6.614;2023-04-10T08:42:50;16.90;98.90
5278;DHT22;2662;51.194;6.614;2023-04-10T08:45:17;16.70;99.60
5278;DHT22;2662;51.194;6.614;2023-04-10T08:47:44;16.80;99.60
5278;DHT22;2662;51.194;6.614;2023-04-10T08:50:14;16.90;99.30
5278;DHT22;2662;51.194;6.614;2023-04-10T08:52:44;16.90;98.50
5278;DHT22;2662;51.194;6.614;2023-04-10T08:55:13;17.10;99.30
5278;DHT22;2662;51.194;6.614;2023-04-10T08:57:40;17.80;98.50
5278;DHT22;2662;51.194;6.614;2023-04-10T09:00:08;18.70;95.50
5278;DHT22;2662;51.194;6.614;2023-04-10T09:02:37;19.20;95.10
5278;DHT22;2662;51.194;6.614;2023-04-10T09:05:10;19.80;94.40
5278;DHT22;2662;51.194;6.614;2023-04-10T09:07:37;20.30;92.60
5278;DHT22;2662;51.194;6.614;2023-04-10T09:10:04;20.30;92.00
5278;DHT22;2662;51.194;6.614;2023-04-10T09:12:43;20.40;91.30
5278;DHT22;2662;51.194;6.614;2023-04-10T09:15:11;20.50;90.90
5278;DHT22;2662;51.194;6.614;2023-04-10T09:17:53;20.60;90.30
5278;DHT22;2662;51.194;6.614;2023-04-10T09:20:21;20.50;90.40
5278;DHT22;2662;51.194;6.614;2023-04-10T09:22:48;20.00;90.60
5278;DHT22;2662;51.194;6.614;2023-04-10T09:25:28;19.40;90.40
5278;DHT22;2662;51.194;6.614;2023-04-10T09:28:01;19.20;91.90
5278;DHT22;2662;51.194;6.614;2023-04-10T09:30:36;19.00;92.60
5278;DHT22;2662;51.194;6.614;2023-04-10T09:33:20;19.00;91.90
5278;DHT22;2662;51.194;6.614;2023-04-10T09:35:47;18.90;93.20
5278;DHT22;2662;51.194;6.614;2023-04-10T09:38:15;18.80;92.10
5278;DHT22;2662;51.194;6.614;2023-04-10T09:40:42;18.80;91.80
5278;DHT22;2662;51.194;6.614;2023-04-10T09:43:19;18.90;93.30
5278;DHT22;2662;51.194;6.614;2023-04-10T09:45:47;19.20;93.40
5278;DHT22;2662;51.194;6.614;2023-04-10T09:48:13;19.40;92.00
5278;DHT22;2662;51.194;6.614;2023-04-10T09:50:40;19.70;92.20
5278;DHT22;2662;51.194;6.614;2023-04-10T09:53:08;19.80;91.60
5278;DHT22;2662;51.194;6.614;2023-04-10T09:55:36;19.90;91.20
5278;DHT22;2662;51.194;6.614;2023-04-10T09:58:03;20.30;91.90
5278;DHT22;2662;51.194;6.614;2023-04-10T10:00:34;20.70;91.00
5278;DHT22;2662;51.194;6.614;2023-04-10T10:03:04;20.40;90.10
5278;DHT22;2662;51.194;6.614;2023-04-10T10:05:34;20.20;90.00
5278;DHT22;2662;51.194;6.614;2023-04-10T10:08:01;20.00;90.50
5278;DHT22;2662;51.194;6.614;2023-04-10T10:10:29;20.00;90.50
5278;DHT22;2662;51.194;6.614;2023-04-10T10:12:59;19.90;90.60
5278;DHT22;2662;51.194;6.614;2023-04-10T10:15:34;19.70;90.50
5278;DHT22;2662;51.194;6.614;2023-04-10T10:18:06;19.60;91.10
5278;DHT22;2662;51.194;6.614;2023-04-10T10:20:33;19.40;91.70
5278;DHT22;2662;51.194;6.614;2023-04-10T10:23:02;19.70;92.20
5278;DHT22;2662;51.194;6.614;2023-04-10T10:25:30;20.00;92.10
5278;DHT22;2662;51.194;6.614;2023-04-10T10:27:59;19.90;91.30
5278;DHT22;2662;51.194;6.614;2023-04-10T10:30:28;19.80;91.30
5278;DHT22;2662;51.194;6.614;2023-04-10T10:32:58;19.90;91.30
5278;DHT22;2662;51.194;6.614;2023-04-10T10:35:26;19.90;91.20
5278;DHT22;2662;51.194;6.614;2023-04-10T10:37:53;20.00;90.90
5278;DHT22;2662;51.194;6.614;2023-04-10T10:40:23;19.90;90.20
5278;DHT22;2662;51.194;6.614;2023-04-10T10:42:59;19.60;90.40
5278;DHT22;2662;51.194;6.614;2023-04-10T10:45:35;19.40;90.70
5278;DHT22;2662;51.194;6.614;2023-04-10T10:48:04;19.20;90.20
5278;DHT22;2662;51.194;6.614;2023-04-10T10:50:50;19.30;90.90
5278;DHT22;2662;51.194;6.614;2023-04-10T10:53:35;19.50;91.20
5278;DHT22;2662;51.194;6.614;2023-04-10T10:56:33;19.30;90.80
5278;DHT22;2662;51.194;6.614;2023-04-10T10:59:00;19.00;90.60
5278;DHT22;2662;51.194;6.614;2023-04-10T11:01:27;19.00;91.50
5278;DHT22;2662;51.194;6.614;2023-04-10T11:03:55;19.00;90.80
5278;DHT22;2662;51.194;6.614;2023-04-10T11:06:49;19.00;90.80
5278;DHT22;2662;51.194;6.614;2023-04-10T11:09:45;18.90;90.80
5278;DHT22;2662;51.194;6.614;2023-04-10T11:12:12;18.90;91.30
5278;DHT22;2662;51.194;6.614;2023-04-10T11:14:41;18.90;91.60
5278;DHT22;2662;51.194;6.614;2023-04-10T11:17:08;19.10;92.00
5278;DHT22;2662;51.194;6.614;2023-04-10T11:19:58;19.10;91.60
5278;DHT22;2662;51.194;6.614;2023-04-10T11:22:25;19.10;91.50
5278;DHT22;2662;51.194;6.614;2023-04-10T11:24:58;19.20;91.80
5278;DHT22;2662;51.194;6.614;2023-04-10T11:27:42;19.30;91.30
5278;DHT22;2662;51.194;6.614;2023-04-10T11:30:33;19.30;91.60
5278;DHT22;2662;51.194;6.614;2023-04-10T11:33:02;19.50;91.60
5278;DHT22;2662;51.194;6.614;2023-04-10T11:35:31;19.50;90.90
5278;DHT22;2662;51.194;6.614;2023-04-10T11:38:14;19.50;91.30
5278;DHT22;2662;51.194;6.614;2023-04-10T11:40:58;19.40;91.30
5278;DHT22;2662;51.194;6.614;2023-04-10T11:43:26;19.40;92.20
5278;DHT22;2662;51.194;6.614;2023-04-10T11:46:00;19.30;92.00
5278;DHT22;2662;51.194;6.614;2023-04-10T11:48:28;19.30;91.50
5278;DHT22;2662;51.194;6.614;2023-04-10T11:50:56;19.20;91.50
5278;DHT22;2662;51.194;6.614;2023-04-10T11:53:26;19.20;91.00
5278;DHT22;2662;51.194;6.614;2023-04-10T11:55:54;19.20;91.90
5278;DHT22;2662;51.194;6.614;2023-04-10T11:58:25;19.30;91.60
5278;DHT22;2662;51.194;6.614;2023-04-10T12:00:57;19.20;90.70
5278;DHT22;2662;51.194;6.614;2023-04-10T12:03:34;19.20;91.70
5278;DHT22;2662;51.194;6.614;2023-04-10T12:06:03;19.30;91.30
5278;DHT22;2662;51.194;6.614;2023-04-10T12:08:30;19.40;91.60
5278;DHT22;2662;51.194;6.614;2023-04-10T12:10:57;19.40;91.70
5278;DHT22;2662;51.194;6.614;2023-04-10T12:13:25;19.40;91.60
5278;DHT22;2662;51.194;6.614;2023-04-10T12:15:52;19.50;91.70
5278;DHT22;2662;51.194;6.614;2023-04-10T12:18:19;19.40;91.60
5278;DHT22;2662;51.194;6.614;2023-04-10T12:20:46;19.50;92.20
5278;DHT22;2662;51.194;6.614;2023-04-10T12:23:17;19.60;92.00
5278;DHT22;2662;51.194;6.614;2023-04-10T12:25:44;19.70;91.50
5278;DHT22;2662;51.194;6.614;2023-04-10T12:28:16;19.80;91.20
5278;DHT22;2662;51.194;6.614;2023-04-10T12:30:48;20.00;91.30
5278;DHT22;2662;51.194;6.614;2023-04-10T12:33:19;20.20;91.70
5278;DHT22;2662;51.194;6.614;2023-04-10T12:35:47;20.50;91.90
5278;DHT22;2662;51.194;6.614;2023-04-10T12:38:13;21.00;91.80
5278;DHT22;2662;51.194;6.614;2023-04-10T12:40:59;21.00;90.50
5278;DHT22;2662;51.194;6.614;2023-04-10T12:43:31;20.90;90.00
5278;DHT22;2662;51.194;6.614;2023-04-10T12:45:58;21.10;90.20
5278;DHT22;2662;51.194;6.614;2023-04-10T12:48:25;21.30;90.90
5278;DHT22;2662;51.194;6.614;2023-04-10T12:50:52;21.70;91.20
5278;DHT22;2662;51.194;6.614;2023-04-10T12:53:18;21.60;88.60
5278;DHT22;2662;51.194;6.614;2023-04-10T12:55:56;21.70;87.80
5278;DHT22;2662;51.194;6.614;2023-04-10T12:58:25;21.70;84.40
5278;DHT22;2662;51.194;6.614;2023-04-10T13:00:53;21.60;83.90
5278;DHT22;2662;51.194;6.614;2023-04-10T13:03:20;21.50;83.20
5278;DHT22;2662;51.194;6.614;2023-04-10T13:05:48;21.30;82.30
5278;DHT22;2662;51.194;6.614;2023-04-10T13:08:14;21.40;83.00
5278;DHT22;2662;51.194;6.614;2023-04-10T13:10:41;21.40;83.70
5278;DHT22;2662;51.194;6.614;2023-04-10T13:13:08;21.40;82.80
5278;DHT22;2662;51.194;6.614;2023-04-10T13:15:38;21.40;82.00
5278;DHT22;2662;51.194;6.614;2023-04-10T13:18:06;21.50;82.30
5278;DHT22;2662;51.194;6.614;2023-04-10T13:20:33;21.60;82.90
5278;DHT22;2662;51.194;6.614;2023-04-10T13:23:00;21.60;83.60
5278;DHT22;2662;51.194;6.614;2023-04-10T13:25:30;21.70;83.40
5278;DHT22;2662;51.194;6.614;2023-04-10T13:27:57;21.70;79.50
5278;DHT22;2662;51.194;6.614;2023-04-10T13:30:24;21.80;80.30
5278;DHT22;2662;51.194;6.614;2023-04-10T13:32:52;21.60;76.90
5278;DHT22;2662;51.194;6.614;2023-04-10T13:35:19;21.60;77.80
5278;DHT22;2662;51.194;6.614;2023-04-10T13:37:46;21.60;76.50
5278;DHT22;2662;51.194;6.614;2023-04-10T13:40:13;21.80;78.90
5278;DHT22;2662;51.194;6.614;2023-04-10T13:42:39;21.80;76.00
5278;DHT22;2662;51.194;6.614;2023-04-10T13:45:07;21.80;77.50
5278;DHT22;2662;51.194;6.614;2023-04-10T13:47:34;21.60;75.70
5278;DHT22;2662;51.194;6.614;2023-04-10T13:50:02;21.60;78.80
5278;DHT22;2662;51.194;6.614;2023-04-10T13:52:29;21.60;77.00
5278;DHT22;2662;51.194;6.614;2023-04-10T13:54:55;21.70;79.00
5278;DHT22;2662;51.194;6.614;2023-04-10T13:57:22;21.80;79.00
5278;DHT22;2662;51.194;6.614;2023-04-10T13:59:49;21.80;75.90
5278;DHT22;2662;51.194;6.614;2023-04-10T14:02:15;21.70;75.00
5278;DHT22;2662;51.194;6.614;2023-04-10T14:04:42;21.60;75.60
5278;DHT22;2662;51.194;6.614;2023-04-10T14:07:12;21.50;75.00
5278;DHT22;2662;51.194;6.614;2023-04-10T14:09:38;21.40;75.10
5278;DHT22;2662;51.194;6.614;2023-04-10T14:12:05;21.30;75.00
5278;DHT22;2662;51.194;6.614;2023-04-10T14:14:32;21.30;75.20
5278;DHT22;2662;51.194;6.614;2023-04-10T14:16:58;21.10;75.30
5278;DHT22;2662;51.194;6.614;2023-04-10T14:19:25;21.10;76.70
5278;DHT22;2662;51.194;6.614;2023-04-10T14:21:52;21.10;76.60
5278;DHT22;2662;51.194;6.614;2023-04-10T14:24:20;20.90;75.40
5278;DHT22;2662;51.194;6.614;2023-04-10T14:26:46;21.00;77.30
5278;DHT22;2662;51.194;6.614;2023-04-10T14:29:13;20.90;77.80
5278;DHT22;2662;51.194;6.614;2023-04-10T14:31:40;20.90;78.50
5278;DHT22;2662;51.194;6.614;2023-04-10T14:34:06;21.00;78.80
5278;DHT22;2662;51.194;6.614;2023-04-10T14:36:33;21.10;79.10
5278;DHT22;2662;51.194;6.614;2023-04-10T14:39:00;21.20;80.90
5278;DHT22;2662;51.194;6.614;2023-04-10T14:41:28;21.30;82.20
5278;DHT22;2662;51.194;6.614;2023-04-10T14:43:55;21.20;80.20
5278;DHT22;2662;51.194;6.614;2023-04-10T14:46:22;21.20;78.80
5278;DHT22;2662;51.194;6.614;2023-04-10T14:48:49;21.00;80.80
5278;DHT22;2662;51.194;6.614;2023-04-10T14:51:16;20.90;81.50
5278;DHT22;2662;51.194;6.614;2023-04-10T14:53:44;20.90;82.60
5278;DHT22;2662;51.194;6.614;2023-04-10T14:56:12;21.00;83.90
5278;DHT22;2662;51.194;6.614;2023-04-10T14:58:40;20.80;81.20
5278;DHT22;2662;51.194;6.614;2023-04-10T15:01:08;20.60;80.30
5278;DHT22;2662;51.194;6.614;2023-04-10T15:03:36;20.50;80.80
5278;DHT22;2662;51.194;6.614;2023-04-10T15:06:03;20.50;82.40
5278;DHT22;2662;51.194;6.614;2023-04-10T15:08:30;20.50;84.00
5278;DHT22;2662;51.194;6.614;2023-04-10T15:10:57;20.50;83.00
5278;DHT22;2662;51.194;6.614;2023-04-10T15:13:24;20.40;81.90
5278;DHT22;2662;51.194;6.614;2023-04-10T15:15:52;20.50;83.70
5278;DHT22;2662;51.194;6.614;2023-04-10T15:18:19;20.50;80.80
5278;DHT22;2662;51.194;6.614;2023-04-10T15:20:46;20.60;82.30
5278;DHT22;2662;51.194;6.614;2023-04-10T15:23:13;20.60;82.10
5278;DHT22;2662;51.194;6.614;2023-04-10T15:25:39;20.40;79.90
5278;DHT22;2662;51.194;6.614;2023-04-10T15:28:06;20.30;81.20
5278;DHT22;2662;51.194;6.614;2023-04-10T15:30:33;20.20;81.80
5278;DHT22;2662;51.194;6.614;2023-04-10T15:33:01;20.10;82.20
5278;DHT22;2662;51.194;6.614;2023-04-10T15:35:28;20.00;82.10
5278;DHT22;2662;51.194;6.614;2023-04-10T15:37:58;19.80;81.80
5278;DHT22;2662;51.194;6.614;2023-04-10T15:40:25;19.90;82.60
5278;DHT22;2662;51.194;6.614;2023-04-10T15:42:52;19.70;80.80
5278;DHT22;2662;51.194;6.614;2023-04-10T15:45:18;19.60;82.10
5278;DHT22;2662;51.194;6.614;2023-04-10T15:47:46;19.50;83.40
5278;DHT22;2662;51.194;6.614;2023-04-10T15:50:14;19.50;84.40
5278;DHT22;2662;51.194;6.614;2023-04-10T15:52:41;19.50;83.30
5278;DHT22;2662;51.194;6.614;2023-04-10T15:55:08;19.40;83.60
5278;DHT22;2662;51.194;6.614;2023-04-10T15:57:34;19.30;85.70
5278;DHT22;2662;51.194;6.614;2023-04-10T16:00:01;19.20;87.20
5278;DHT22;2662;51.194;6.614;2023-04-10T16:02:28;18.90;89.60
5278;DHT22;2662;51.194;6.614;2023-04-10T16:04:56;18.80;90.70
5278;DHT22;2662;51.194;6.614;2023-04-10T16:07:24;18.50;92.70
5278;DHT22;2662;51.194;6.614;2023-04-10T16:09:51;18.30;94.40
5278;DHT22;2662;51.194;6.614;2023-04-10T16:12:19;18.10;96.30
5278;DHT22;2662;51.194;6.614;2023-04-10T16:14:46;17.80;99.90